createdAt,value
2022-08-19T00:00:25.540Z,27.38
2022-08-19T00:03:08.063Z,27.39
2022-08-19T00:05:36.939Z,27.38
2022-08-19T00:08:05.132Z,27.45
2022-08-19T00:10:35.209Z,27.49
2022-08-19T00:13:02.449Z,27.55
2022-08-19T00:15:29.562Z,27.61
2022-08-19T00:18:02.459Z,27.62
2022-08-19T00:20:31.258Z,27.63
2022-08-19T00:23:10.163Z,27.67
2022-08-19T00:25:37.668Z,27.72
2022-08-19T00:28:08.228Z,27.77
2022-08-19T00:30:37.924Z,27.79
2022-08-19T00:33:05.024Z,27.87
2022-08-19T00:35:32.511Z,27.89
2022-08-19T00:38:01.095Z,27.91
2022-08-19T00:40:30.301Z,27.92
2022-08-19T00:42:57.561Z,27.93
2022-08-19T00:45:26.745Z,28.03
2022-08-19T00:47:57.304Z,28.00
2022-08-19T00:50:25.175Z,28.03
2022-08-19T00:52:53.690Z,28.02
2022-08-19T00:55:25.318Z,28.07
2022-08-19T00:58:14.190Z,28.05
2022-08-19T01:00:41.893Z,28.07
2022-08-19T01:03:11.918Z,28.11
2022-08-19T01:05:42.566Z,28.15
2022-08-19T01:08:12.344Z,28.14
2022-08-19T01:10:43.853Z,28.18
2022-08-19T01:13:23.257Z,28.16
2022-08-19T01:16:04.116Z,28.13
2022-08-19T01:18:34.844Z,28.17
2022-08-19T01:21:07.350Z,28.18
2022-08-19T01:23:48.206Z,28.16
2022-08-19T01:26:17.673Z,28.19
2022-08-19T01:28:59.650Z,28.18
2022-08-19T01:31:33.108Z,28.14
2022-08-19T01:34:00.768Z,28.15
2022-08-19T01:36:29.210Z,28.17
2022-08-19T01:38:56.820Z,28.13
2022-08-19T01:41:25.610Z,28.14
2022-08-19T01:44:12.347Z,28.10
2022-08-19T01:46:41.386Z,28.05
2022-08-19T01:49:09.207Z,28.01
2022-08-19T01:51:39.981Z,28.03
2022-08-19T01:54:11.768Z,27.99
2022-08-19T01:56:39.815Z,27.94
2022-08-19T01:59:12.411Z,27.94
2022-08-19T02:01:47.055Z,27.88
2022-08-19T02:04:15.121Z,27.87
2022-08-19T02:06:42.294Z,27.84
2022-08-19T02:09:09.534Z,27.84
2022-08-19T02:11:37.702Z,27.84
2022-08-19T02:14:07.003Z,27.80
2022-08-19T02:16:39.766Z,27.76
2022-08-19T02:19:07.148Z,27.72
2022-08-19T02:21:51.832Z,27.72
2022-08-19T02:24:22.824Z,27.68
2022-08-19T02:26:52.585Z,27.70
2022-08-19T02:32:26.949Z,27.72
2022-08-19T02:34:54.055Z,27.68
2022-08-19T02:37:39.833Z,27.60
2022-08-19T02:40:12.504Z,27.55
2022-08-19T02:42:40.672Z,27.55
2022-08-19T02:45:08.763Z,27.55
2022-08-19T02:47:35.862Z,27.59
2022-08-19T02:50:03.324Z,27.56
2022-08-19T02:52:30.581Z,27.56
2022-08-19T02:54:58.693Z,27.52
2022-08-19T02:57:26.312Z,27.51
2022-08-19T02:59:53.418Z,27.49
2022-08-19T03:02:20.403Z,27.49
2022-08-19T03:04:47.480Z,27.50
2022-08-19T03:07:16.292Z,27.49
2022-08-19T03:09:43.692Z,27.47
2022-08-19T03:12:11.102Z,27.44
2022-08-19T03:14:38.264Z,27.41
2022-08-19T03:17:05.599Z,27.41
2022-08-19T03:19:32.711Z,27.39
2022-08-19T03:21:59.876Z,27.40
2022-08-19T03:24:26.927Z,27.39
2022-08-19T03:26:58.363Z,27.40
2022-08-19T03:29:30.799Z,27.36
2022-08-19T03:32:01.586Z,27.30
2022-08-19T03:34:30.327Z,27.29
2022-08-19T03:36:58.960Z,27.30
2022-08-19T03:39:26.143Z,27.26
2022-08-19T03:42:30.205Z,27.23
2022-08-19T03:44:40.845Z,27.17
2022-08-19T03:47:07.807Z,27.17
2022-08-19T03:49:36.852Z,27.14
2022-08-19T03:52:08.410Z,27.12
2022-08-19T03:54:35.881Z,27.12
2022-08-19T03:57:04.013Z,27.07
2022-08-19T03:59:33.368Z,27.06
2022-08-19T04:02:01.353Z,27.04
2022-08-19T04:04:29.198Z,27.00
2022-08-19T04:06:56.855Z,26.97
2022-08-19T04:09:23.881Z,26.96
2022-08-19T04:11:55.552Z,26.97
2022-08-19T04:14:25.771Z,26.91
2022-08-19T04:16:52.940Z,26.86
2022-08-19T04:19:20.001Z,26.85
2022-08-19T04:21:48.295Z,26.86
2022-08-19T04:24:15.258Z,26.82
2022-08-19T04:26:42.590Z,26.79
2022-08-19T04:29:13.787Z,26.78
2022-08-19T04:31:41.152Z,26.76
2022-08-19T04:34:09.255Z,26.75
2022-08-19T04:36:37.025Z,26.75
2022-08-19T04:39:06.931Z,26.75
2022-08-19T04:41:52.319Z,26.72
2022-08-19T04:44:19.592Z,26.68
2022-08-19T04:46:50.912Z,26.72
2022-08-19T04:49:20.240Z,26.66
2022-08-19T04:51:48.863Z,26.67
2022-08-19T04:54:23.934Z,26.68
2022-08-19T04:57:04.707Z,26.67
2022-08-19T04:59:31.697Z,26.70
2022-08-19T05:01:58.757Z,26.71
2022-08-19T05:04:25.735Z,26.72
2022-08-19T05:06:54.490Z,26.72
2022-08-19T05:09:28.002Z,26.71
2022-08-19T05:11:55.364Z,26.75
2022-08-19T05:14:22.856Z,26.74
2022-08-19T05:16:50.007Z,26.79
2022-08-19T05:19:35.495Z,26.81
2022-08-19T05:22:21.236Z,26.80
2022-08-19T05:25:11.258Z,26.84
2022-08-19T05:27:35.330Z,26.86
2022-08-19T05:30:02.666Z,26.89
2022-08-19T05:32:29.969Z,26.92
2022-08-19T05:34:57.175Z,26.98
2022-08-19T05:37:24.452Z,26.98
2022-08-19T05:39:51.772Z,27.01
2022-08-19T05:42:21.257Z,27.08
2022-08-19T05:44:50.243Z,27.08
2022-08-19T05:47:20.130Z,27.14
2022-08-19T05:49:47.737Z,27.14
2022-08-19T05:52:18.600Z,27.16
2022-08-19T05:54:51.026Z,27.20
2022-08-19T05:57:19.847Z,27.21
2022-08-19T05:59:52.733Z,27.24
2022-08-19T06:02:20.004Z,27.00
2022-08-19T06:04:47.110Z,27.18
2022-08-19T06:07:14.259Z,27.29
2022-08-19T06:09:41.522Z,27.35
2022-08-19T06:12:35.582Z,27.38
2022-08-19T06:15:10.859Z,27.46
2022-08-19T06:17:38.188Z,27.46
2022-08-19T06:20:06.426Z,27.54
2022-08-19T06:22:33.476Z,27.60
2022-08-19T06:25:00.533Z,27.66
2022-08-19T06:27:27.563Z,27.70
2022-08-19T06:29:55.237Z,27.80
2022-08-19T06:32:22.395Z,27.84
2022-08-19T06:34:49.546Z,27.88
2022-08-19T06:37:16.582Z,27.94
2022-08-19T06:39:46.633Z,28.05
2022-08-19T06:42:17.626Z,28.11
2022-08-19T06:44:48.992Z,28.20
2022-08-19T06:47:24.021Z,28.31
2022-08-19T06:50:03.226Z,28.34
2022-08-19T06:52:31.916Z,28.43
2022-08-19T06:55:06.123Z,28.52
2022-08-19T06:57:34.578Z,28.58
2022-08-19T07:00:01.756Z,28.70
2022-08-19T07:02:28.912Z,28.81
2022-08-19T07:04:58.487Z,28.89
2022-08-19T07:07:26.195Z,28.96
2022-08-19T07:09:59.847Z,29.03
2022-08-19T07:12:38.044Z,29.12
2022-08-19T07:15:06.285Z,29.21
2022-08-19T07:17:34.592Z,29.31
2022-08-19T07:20:05.167Z,29.37
2022-08-19T07:22:35.375Z,29.46
2022-08-19T07:25:04.872Z,29.51
2022-08-19T07:27:33.487Z,29.62
2022-08-19T07:30:00.973Z,29.69
2022-08-19T07:32:28.072Z,29.75
2022-08-19T07:34:55.746Z,29.77
2022-08-19T07:37:27.339Z,29.85
2022-08-19T07:39:56.569Z,29.88
2022-08-19T07:42:23.766Z,29.93
2022-08-19T07:44:51.168Z,29.97
2022-08-19T07:47:50.190Z,30.02
2022-08-19T07:50:08.014Z,30.02
2022-08-19T07:52:35.888Z,30.07
2022-08-19T07:55:05.072Z,30.13
2022-08-19T07:57:32.340Z,30.16
2022-08-19T07:59:59.978Z,30.24
2022-08-19T08:02:26.969Z,30.27
2022-08-19T08:05:12.419Z,30.34
2022-08-19T08:07:58.842Z,30.38
2022-08-19T08:10:26.275Z,30.44
2022-08-19T08:13:10.249Z,30.51
2022-08-19T08:15:43.152Z,30.53
2022-08-19T08:18:12.023Z,30.58
2022-08-19T08:20:39.793Z,30.64
2022-08-19T08:23:26.989Z,30.70
2022-08-19T08:25:56.741Z,30.76
2022-08-19T08:28:29.504Z,30.84
2022-08-19T08:31:00.705Z,30.89
2022-08-19T08:33:33.805Z,30.96
2022-08-19T08:36:04.993Z,31.01
2022-08-19T08:38:39.003Z,31.09
2022-08-19T08:41:11.340Z,31.18
2022-08-19T08:43:42.562Z,31.20
2022-08-19T08:46:42.117Z,31.27
2022-08-19T08:49:14.990Z,31.33
2022-08-19T08:51:47.637Z,31.40
2022-08-19T08:54:16.356Z,31.45
2022-08-19T08:56:44.132Z,31.52
2022-08-19T08:59:22.335Z,31.61
2022-08-19T09:01:49.710Z,31.62
2022-08-19T09:04:16.855Z,31.73
2022-08-19T09:07:18.543Z,31.80
2022-08-19T09:10:09.986Z,31.88
2022-08-19T09:13:15.269Z,32.00
2022-08-19T09:15:45.846Z,32.13
2022-08-19T09:18:19.280Z,32.22
2022-08-19T09:20:48.539Z,32.31
2022-08-19T09:23:15.880Z,32.44
2022-08-19T09:25:43.026Z,32.51
2022-08-19T09:28:15.052Z,32.60
2022-08-19T09:30:49.449Z,32.70
2022-08-19T09:33:17.255Z,32.82
2022-08-19T09:35:53.064Z,32.93
2022-08-19T09:38:21.178Z,33.02
2022-08-19T09:40:48.214Z,33.11
2022-08-19T09:43:15.608Z,33.22
2022-08-19T09:46:02.903Z,33.26
2022-08-19T09:48:33.716Z,33.35
2022-08-19T09:51:18.037Z,33.48
2022-08-19T09:53:51.134Z,33.47
2022-08-19T09:56:21.240Z,33.57
2022-08-19T09:58:48.867Z,33.66
2022-08-19T10:01:24.141Z,33.75
2022-08-19T10:03:54.622Z,33.81
2022-08-19T10:06:23.003Z,33.91
2022-08-19T10:09:11.941Z,33.95
2022-08-19T10:11:46.875Z,34.06
2022-08-19T10:14:23.654Z,34.08
2022-08-19T10:16:53.004Z,34.08
2022-08-19T10:19:25.726Z,34.07
2022-08-19T10:21:54.382Z,34.08
2022-08-19T10:24:25.447Z,34.06
2022-08-19T10:26:55.801Z,34.05
2022-08-19T10:29:32.171Z,34.04
2022-08-19T10:32:03.160Z,34.07
2022-08-19T10:34:30.790Z,34.09
2022-08-19T10:37:00.924Z,34.16
2022-08-19T10:39:32.816Z,34.17
2022-08-19T10:42:14.578Z,34.15
2022-08-19T10:44:42.309Z,34.15
2022-08-19T10:47:17.693Z,34.17
2022-08-19T10:50:17.326Z,34.14
2022-08-19T10:52:49.910Z,34.14
2022-08-19T10:55:43.867Z,34.21
2022-08-19T10:58:50.192Z,34.19
2022-08-19T11:01:17.447Z,34.23
2022-08-19T11:03:46.792Z,34.37
2022-08-19T13:04:30.711Z,35.83
2022-08-19T13:07:10.053Z,35.79
2022-08-19T13:09:37.184Z,35.79
2022-08-19T13:12:08.282Z,35.83
2022-08-19T13:14:36.335Z,35.86
2022-08-19T13:17:09.850Z,35.87
2022-08-19T13:19:38.244Z,35.83
2022-08-19T13:22:07.318Z,35.85
2022-08-19T13:24:45.095Z,35.84
2022-08-19T13:27:14.340Z,35.83
2022-08-19T13:30:02.706Z,35.86
2022-08-19T13:32:49.407Z,35.81
2022-08-19T13:35:17.754Z,35.77
2022-08-19T13:37:45.296Z,35.73
2022-08-19T13:40:19.591Z,35.74
2022-08-19T13:42:48.507Z,35.66
2022-08-19T13:45:19.190Z,35.68
2022-08-19T13:47:50.520Z,35.60
2022-08-19T13:50:21.746Z,35.48
2022-08-19T13:52:48.946Z,35.44
2022-08-19T13:55:16.100Z,35.32
2022-08-19T13:57:56.678Z,35.28
2022-08-19T14:00:27.547Z,35.23
2022-08-19T14:03:18.351Z,35.18
2022-08-19T14:09:19.023Z,34.97
2022-08-19T14:11:47.803Z,34.87
2022-08-19T14:14:16.536Z,34.61
2022-08-19T14:16:58.094Z,34.53
2022-08-19T14:19:34.475Z,34.44
2022-08-19T14:22:09.397Z,34.25
2022-08-19T14:24:47.956Z,34.14
2022-08-19T14:27:16.666Z,33.98
2022-08-19T14:29:46.628Z,33.80
2022-08-19T14:46:29.904Z,32.80
2022-08-19T15:24:26.404Z,31.43
2022-08-19T15:37:50.745Z,31.10
2022-08-19T15:50:18.302Z,30.80
2022-08-19T15:52:54.614Z,30.80
2022-08-19T15:55:43.279Z,30.62
2022-08-19T16:11:45.749Z,30.21
2022-08-19T16:14:17.135Z,30.21
2022-08-19T16:19:28.201Z,30.10
2022-08-19T16:22:07.383Z,30.07
2022-08-19T16:24:34.446Z,29.98
2022-08-19T16:33:38.568Z,29.72
2022-08-19T16:43:44.654Z,29.50
2022-08-19T16:49:54.644Z,29.38
2022-08-19T16:52:27.255Z,29.37
2022-08-19T17:27:20.055Z,28.52
2022-08-19T17:30:00.224Z,28.46
2022-08-19T17:32:28.466Z,28.42
2022-08-19T17:34:57.520Z,28.38
2022-08-19T17:37:26.394Z,28.34
2022-08-19T17:39:55.875Z,28.30
2022-08-19T17:42:25.409Z,28.24
2022-08-19T17:44:54.501Z,28.23
2022-08-19T17:47:22.026Z,28.17
2022-08-19T17:49:49.094Z,28.11
2022-08-19T17:52:16.511Z,28.10
2022-08-19T17:54:44.907Z,28.04
2022-08-19T17:57:25.100Z,28.01
2022-08-19T18:00:19.133Z,27.94
2022-08-19T18:02:51.458Z,27.81
2022-08-19T18:05:23.864Z,27.78
2022-08-19T18:07:52.598Z,27.69
2022-08-19T18:11:23.787Z,27.70
2022-08-19T18:30:09.227Z,27.26
2022-08-19T18:32:54.038Z,27.21
2022-08-19T18:42:49.981Z,27.04
2022-08-19T18:45:37.672Z,26.96
2022-08-19T18:48:26.776Z,26.90
2022-08-19T18:50:58.933Z,26.86
2022-08-19T18:53:27.508Z,26.84
2022-08-19T18:55:58.443Z,26.80
2022-08-19T18:58:32.413Z,26.76
2022-08-19T19:01:10.771Z,26.73
2022-08-19T19:03:46.475Z,26.70
2022-08-19T19:06:25.976Z,26.66
2022-08-19T19:16:43.717Z,26.37
2022-08-19T19:28:56.806Z,26.20
2022-08-19T19:31:27.063Z,26.14
2022-08-19T19:37:02.649Z,26.15
